KRDR/RDR METAR and TAF weather

Enter ICAO airport designator
Station Type Date Time Source
KRDR METAR 2020/01/26 19:02 UTC NOAA

KRDR 261902Z 04006KT 2 1/4SM BR OVC002 M05/M06 A2994 RMK AO2A SLP159


Station Type Date Time Source
KRDR Decoded METAR 2020/01/26 19:02 UTC NOAA

Grand Forks Air Force Base, ND, United States (KRDR) 47-58N 097-24W 278M
Jan 26, 2020 - 02:02 PM EST / 2020.01.26 1902 UTC
Wind: from the NE (040 degrees) at 7 MPH (6 KT):0
Visibility: 2 1/4 mile(s):0
Sky conditions: overcast
Weather: mist
Temperature: 23 F (-5 C)
Windchill: 14 F (-10 C):1
Dew Point: 21 F (-6 C)
Relative Humidity: 92%
Pressure (altimeter): 29.94 in. Hg (1013 hPa)
ob: KRDR 261902Z 04006KT 2 1/4SM BR OVC002 M05/M06 A2994 RMK AO2A SLP159
cycle: 19

Station Type Date Time Source
KRDR TAF 2020/01/26 18:36 UTC NOAA

TAF TAF COR KRDR 261826Z 2618/2724 VRB06KT 1800 -FZDZ BR VV002 660002 QNH2991INS
BECMG 2618/2619 VRB06KT 2000 -SN OVC002 620109 QNH2991INS
BECMG 2620/2621 VRB06KT 8000 -SN OVC010 620109 QNH2991INS
BECMG 2621/2622 VRB06KT 9999 NSW BKN010 620109 QNH2992INS TXM03/2619Z TNM15/2715Z

Example: see airport list